createdAt,value
2018-08-06T00:00:58.007Z,90.97
2018-08-06T00:01:58.632Z,91.27
2018-08-06T00:02:58.015Z,91.17
2018-08-06T00:03:58.036Z,91.46
2018-08-06T00:04:58.037Z,91.75
2018-08-06T00:05:58.038Z,91.75
2018-08-06T00:06:58.046Z,91.17
2018-08-06T00:07:58.044Z,91.17
2018-08-06T00:08:58.060Z,91.17
2018-08-06T00:09:58.064Z,91.46
2018-08-06T00:10:58.063Z,91.17
2018-08-06T00:11:58.055Z,92.03
2018-08-06T00:12:58.068Z,91.84
2018-08-06T00:13:58.077Z,91.84
2018-08-06T00:14:58.123Z,91.75
2018-08-06T00:15:58.068Z,91.89
2018-08-06T00:16:58.079Z,91.41
2018-08-06T00:17:58.080Z,91.41
2018-08-06T00:18:58.082Z,91.89
2018-08-06T00:19:58.084Z,92.18
2018-08-06T00:20:58.092Z,91.99
2018-08-06T00:21:58.098Z,91.99
2018-08-06T00:22:58.095Z,92.47
2018-08-06T00:23:58.093Z,92.18
2018-08-06T00:24:58.638Z,92.57
2018-08-06T00:25:58.107Z,91.99
2018-08-06T00:26:58.127Z,92.57
2018-08-06T00:27:58.123Z,92.47
2018-08-06T00:28:58.113Z,92.47
2018-08-06T00:29:58.138Z,92.28
2018-08-06T00:30:58.141Z,92.38
2018-08-06T00:31:58.115Z,92.18
2018-08-06T00:32:58.131Z,92.57
2018-08-06T00:33:58.133Z,92.38
2018-08-06T00:34:58.650Z,92.38
2018-08-06T00:35:58.140Z,92.85
2018-08-06T00:36:58.153Z,92.76
2018-08-06T00:37:58.142Z,92.85
2018-08-06T00:38:58.151Z,92.57
2018-08-06T00:39:58.145Z,93.05
2018-08-06T00:40:58.155Z,93.15
2018-08-06T00:41:58.160Z,93.05
2018-08-06T00:42:58.650Z,93.05
2018-08-06T00:43:58.171Z,93.05
2018-08-06T00:44:58.158Z,92.76
2018-08-06T00:45:58.166Z,93.33
2018-08-06T00:46:58.166Z,93.24
2018-08-06T00:47:58.171Z,93.24
2018-08-06T00:48:58.171Z,93.29
2018-08-06T00:49:58.183Z,93.29
2018-08-06T00:50:58.226Z,93.58
2018-08-06T00:51:58.192Z,93.58
2018-08-06T00:52:58.222Z,93.68
2018-08-06T00:53:58.204Z,93.68
2018-08-06T00:54:58.193Z,93.68
2018-08-06T00:55:58.247Z,93.38
2018-08-06T00:56:58.208Z,93.38
2018-08-06T00:57:58.201Z,93.58
2018-08-06T00:58:58.207Z,93.29
2018-08-06T00:59:58.211Z,93.38
2018-08-06T01:00:58.211Z,93.48
2018-08-06T01:01:58.220Z,93.48
2018-08-06T01:02:58.231Z,93.10
2018-08-06T01:03:58.239Z,93.38
2018-08-06T01:04:58.225Z,93.48
2018-08-06T01:05:58.219Z,94.15
2018-08-06T01:06:58.244Z,94.15
2018-08-06T01:07:58.237Z,93.29
2018-08-06T01:08:58.284Z,94.15
2018-08-06T01:09:58.251Z,93.87
2018-08-06T01:10:58.249Z,93.38
2018-08-06T01:11:58.261Z,93.77
2018-08-06T01:12:58.237Z,93.77
2018-08-06T01:13:58.274Z,94.06
2018-08-06T01:14:58.251Z,94.06
2018-08-06T01:15:58.262Z,94.06
2018-08-06T01:16:58.269Z,93.77
2018-08-06T01:17:58.267Z,94.15
2018-08-06T01:18:58.390Z,94.15
2018-08-06T01:19:58.275Z,94.06
2018-08-06T01:20:58.280Z,93.77
2018-08-06T01:21:58.282Z,94.15
2018-08-06T01:22:58.291Z,93.58
2018-08-06T01:23:58.287Z,93.96
2018-08-06T01:24:58.296Z,93.87
2018-08-06T01:25:58.301Z,93.96
2018-08-06T01:26:58.308Z,93.87
2018-08-06T01:27:58.309Z,93.77
2018-08-06T01:28:58.305Z,93.77
2018-08-06T01:29:58.310Z,93.96
2018-08-06T01:30:58.315Z,94.25
2018-08-06T01:31:58.321Z,94.45
2018-08-06T01:32:58.315Z,94.25
2018-08-06T01:33:58.324Z,93.87
2018-08-06T01:34:58.333Z,94.45
2018-08-06T01:35:58.321Z,94.11
2018-08-06T01:36:58.456Z,94.45
2018-08-06T01:37:58.338Z,94.30
2018-08-06T01:38:58.337Z,94.40
2018-08-06T01:39:58.341Z,94.06
2018-08-06T01:40:58.342Z,94.68
2018-08-06T01:41:58.341Z,94.01
2018-08-06T01:42:58.351Z,94.11
2018-08-06T01:43:58.358Z,94.40
2018-08-06T01:44:58.354Z,94.98
2018-08-06T01:45:58.357Z,94.21
2018-08-06T01:46:58.361Z,94.88
2018-08-06T01:47:58.367Z,94.11
2018-08-06T01:48:58.371Z,94.21
2018-08-06T01:49:58.358Z,93.91
2018-08-06T01:50:58.370Z,94.54
2018-08-06T01:51:58.376Z,94.54
2018-08-06T01:52:58.374Z,94.64
2018-08-06T01:53:58.379Z,94.11
2018-08-06T01:54:58.385Z,94.68
2018-08-06T01:55:58.390Z,94.06
2018-08-06T01:56:58.383Z,94.88
2018-08-06T01:57:58.414Z,94.68
2018-08-06T01:58:58.400Z,94.01
2018-08-06T01:59:59.178Z,94.59
2018-08-06T02:00:58.403Z,94.98
2018-08-06T02:01:58.404Z,94.98
2018-08-06T02:02:58.419Z,94.59
2018-08-06T02:03:58.408Z,94.49
2018-08-06T02:04:58.417Z,94.78
2018-08-06T02:05:58.422Z,94.68
2018-08-06T02:06:58.427Z,94.68
2018-08-06T02:07:58.433Z,94.68
2018-08-06T02:08:58.434Z,94.98
2018-08-06T02:09:58.487Z,94.49
2018-08-06T02:10:58.433Z,94.40
2018-08-06T02:11:58.440Z,94.88
2018-08-06T02:12:58.423Z,94.40
2018-08-06T02:13:58.437Z,94.88
2018-08-06T02:14:58.461Z,94.40
2018-08-06T02:15:58.446Z,94.78
2018-08-06T02:16:58.471Z,94.88
2018-08-06T02:17:58.465Z,94.59
2018-08-06T02:18:58.459Z,94.68
2018-08-06T02:19:58.457Z,95.07
2018-08-06T02:20:58.460Z,94.78
2018-08-06T02:21:58.469Z,94.88
2018-08-06T02:22:58.518Z,94.88
2018-08-06T02:23:58.472Z,94.68
2018-08-06T02:24:58.481Z,94.98
2018-08-06T02:25:58.478Z,94.98
2018-08-06T02:26:58.484Z,94.88
2018-08-06T02:27:58.599Z,94.78
2018-08-06T02:28:58.489Z,95.07
2018-08-06T02:29:58.493Z,94.59
2018-08-06T02:30:58.492Z,94.78
2018-08-06T02:31:58.499Z,94.78
2018-08-06T02:32:58.504Z,94.40
2018-08-06T02:33:58.498Z,94.68
2018-08-06T02:34:58.501Z,94.93
2018-08-06T02:35:58.506Z,94.73
2018-08-06T02:36:58.515Z,94.78
2018-08-06T02:37:58.521Z,94.59
2018-08-06T02:38:58.534Z,94.68
2018-08-06T02:39:58.516Z,94.45
2018-08-06T02:40:58.563Z,94.78
2018-08-06T02:41:58.518Z,95.03
2018-08-06T02:42:58.530Z,94.49
2018-08-06T02:43:58.537Z,94.88
2018-08-06T02:44:58.532Z,94.93
2018-08-06T02:45:58.580Z,94.98
2018-08-06T02:46:58.544Z,94.49
2018-08-06T02:47:58.593Z,94.88
2018-08-06T02:48:58.547Z,94.54
2018-08-06T02:49:58.559Z,94.49
2018-08-06T02:50:58.667Z,94.54
2018-08-06T02:51:58.562Z,94.54
2018-08-06T02:52:58.558Z,94.54
2018-08-06T02:53:58.579Z,94.54
2018-08-06T02:54:58.564Z,94.54
2018-08-06T02:55:58.564Z,94.83
2018-08-06T02:56:58.573Z,94.64
2018-08-06T02:57:58.569Z,94.93
2018-08-06T02:58:58.567Z,94.93
2018-08-06T02:59:58.578Z,94.93
2018-08-06T03:00:58.581Z,94.54
2018-08-06T03:01:58.584Z,95.21
2018-08-06T03:02:58.591Z,94.93
2018-08-06T03:03:58.673Z,94.93
2018-08-06T03:04:58.591Z,94.93
2018-08-06T03:05:58.590Z,94.83
2018-08-06T03:06:58.599Z,95.21
2018-08-06T03:07:58.604Z,95.12
2018-08-06T03:08:58.623Z,95.12
2018-08-06T03:09:58.632Z,94.93
2018-08-06T03:10:58.608Z,94.93
2018-08-06T03:11:58.614Z,95.03
2018-08-06T03:12:58.618Z,94.93
2018-08-06T03:13:58.617Z,94.35
2018-08-06T03:14:58.622Z,94.93
2018-08-06T03:15:58.620Z,94.35
2018-08-06T03:16:58.696Z,94.83
2018-08-06T03:17:58.631Z,94.83
2018-08-06T03:18:58.635Z,94.64
2018-08-06T03:19:58.686Z,94.54
2018-08-06T03:20:58.651Z,95.03
2018-08-06T03:21:58.700Z,95.17
2018-08-06T03:22:58.644Z,94.73
2018-08-06T03:23:58.650Z,94.83
2018-08-06T03:24:58.651Z,95.12
2018-08-06T03:25:58.660Z,94.35
2018-08-06T03:26:58.657Z,94.69
2018-08-06T03:27:58.661Z,94.49
2018-08-06T03:28:58.662Z,94.40
2018-08-06T03:29:58.668Z,95.07
2018-08-06T03:30:58.671Z,94.88
2018-08-06T03:31:58.678Z,94.88
2018-08-06T03:32:58.680Z,95.07
2018-08-06T03:33:58.679Z,94.88
2018-08-06T03:34:58.751Z,94.31
2018-08-06T03:35:58.683Z,94.59
2018-08-06T03:36:58.684Z,94.31
2018-08-06T03:37:58.688Z,94.98
2018-08-06T03:38:58.705Z,94.98
2018-08-06T03:39:58.690Z,95.07
2018-08-06T03:40:58.688Z,94.49
2018-08-06T03:41:58.705Z,94.98
2018-08-06T03:42:58.704Z,94.49
2018-08-06T03:43:58.706Z,94.69
2018-08-06T03:44:59.219Z,94.69
2018-08-06T03:45:58.768Z,94.69
2018-08-06T03:46:58.764Z,95.07
2018-08-06T03:47:58.721Z,94.78
2018-08-06T03:48:58.728Z,94.78
2018-08-06T03:49:58.770Z,94.88
2018-08-06T03:50:58.749Z,94.98
2018-08-06T03:51:58.791Z,94.69
2018-08-06T03:52:58.777Z,94.49
2018-08-06T03:53:58.770Z,94.78
2018-08-06T03:54:58.747Z,94.40
2018-08-06T03:55:58.731Z,94.31
2018-08-06T03:56:58.745Z,94.88
2018-08-06T03:57:58.788Z,94.78
2018-08-06T03:58:58.750Z,94.69
2018-08-06T03:59:58.749Z,95.07
2018-08-06T04:00:58.766Z,94.98
2018-08-06T04:01:58.758Z,94.78
2018-08-06T04:02:58.762Z,94.78
2018-08-06T04:03:58.763Z,94.88
2018-08-06T04:04:58.771Z,94.78
2018-08-06T04:05:58.773Z,95.26
2018-08-06T04:06:58.772Z,94.59
2018-08-06T04:07:58.764Z,94.78
2018-08-06T04:08:58.779Z,94.78
2018-08-06T04:09:58.789Z,94.78
2018-08-06T04:10:58.774Z,94.98
2018-08-06T04:11:58.788Z,94.78
2018-08-06T04:12:58.788Z,95.17
2018-08-06T04:13:58.799Z,94.49
2018-08-06T04:14:58.794Z,94.69
2018-08-06T04:15:59.732Z,94.78
2018-08-06T04:16:58.799Z,94.78
2018-08-06T04:17:58.808Z,94.78
2018-08-06T04:18:58.815Z,95.07
2018-08-06T04:19:58.825Z,94.98
2018-08-06T04:20:58.815Z,94.98
2018-08-06T04:21:58.810Z,94.88
2018-08-06T04:22:58.819Z,94.78
2018-08-06T04:23:58.821Z,95.17
2018-08-06T04:24:58.827Z,95.07
2018-08-06T04:25:58.833Z,95.26
2018-08-06T04:26:58.829Z,94.88
2018-08-06T04:27:58.836Z,95.26
2018-08-06T04:28:58.886Z,94.88
2018-08-06T04:29:58.841Z,95.31
2018-08-06T04:30:58.843Z,95.36
2018-08-06T04:31:58.848Z,94.88
2018-08-06T04:32:58.901Z,94.88
2018-08-06T04:33:58.852Z,94.98
2018-08-06T04:34:58.864Z,94.78
2018-08-06T04:35:58.848Z,94.88
2018-08-06T04:36:58.858Z,95.07
2018-08-06T04:37:58.863Z,95.55
2018-08-06T04:38:58.931Z,95.55
2018-08-06T04:39:58.874Z,95.26
2018-08-06T04:40:58.875Z,95.55
2018-08-06T04:41:58.877Z,95.26
2018-08-06T04:42:58.882Z,95.55
2018-08-06T04:43:58.880Z,95.40
2018-08-06T04:44:58.884Z,95.31
2018-08-06T04:45:58.975Z,95.60
2018-08-06T04:46:58.923Z,95.70
2018-08-06T04:47:58.926Z,95.60
2018-08-06T04:48:58.937Z,95.12
2018-08-06T04:49:58.932Z,95.17
2018-08-06T04:50:58.961Z,95.55
2018-08-06T04:51:58.942Z,95.40
2018-08-06T04:52:58.901Z,95.60
2018-08-06T04:53:58.907Z,95.60
2018-08-06T04:54:58.915Z,95.40
2018-08-06T04:55:58.919Z,95.17
2018-08-06T04:56:58.916Z,95.70
2018-08-06T04:57:58.937Z,95.31
2018-08-06T04:58:58.921Z,95.40
2018-08-06T04:59:58.941Z,95.31
2018-08-06T05:00:58.932Z,95.60
2018-08-06T05:01:58.928Z,95.70
2018-08-06T05:02:58.935Z,95.70
2018-08-06T05:03:58.953Z,96.08
2018-08-06T05:04:58.945Z,95.12
2018-08-06T05:05:58.948Z,95.12
2018-08-06T05:06:59.118Z,95.31
2018-08-06T05:07:58.951Z,95.03
2018-08-06T05:08:58.957Z,95.31
2018-08-06T05:09:58.958Z,95.31
2018-08-06T05:10:58.973Z,95.36
2018-08-06T05:11:58.975Z,95.60
2018-08-06T05:12:58.962Z,95.45
2018-08-06T05:13:58.991Z,96.03
2018-08-06T05:14:58.959Z,95.75
2018-08-06T05:15:58.958Z,95.55
2018-08-06T05:16:58.980Z,95.17
2018-08-06T05:17:58.984Z,95.45
2018-08-06T05:18:58.979Z,96.03
2018-08-06T05:19:59.131Z,95.75
2018-08-06T05:20:59.005Z,95.17
2018-08-06T05:21:58.995Z,95.40
2018-08-06T05:22:59.000Z,96.08
2018-08-06T05:23:58.998Z,95.40
2018-08-06T05:24:59.011Z,95.02
2018-08-06T05:25:59.002Z,95.31
2018-08-06T05:26:59.009Z,95.40
2018-08-06T05:27:59.009Z,95.21
2018-08-06T05:28:59.018Z,95.31
2018-08-06T05:29:59.016Z,95.45
2018-08-06T05:30:59.021Z,95.55
2018-08-06T05:31:59.038Z,95.65
2018-08-06T05:32:59.758Z,94.68
2018-08-06T05:33:59.028Z,94.68
2018-08-06T05:34:59.030Z,95.26
2018-08-06T05:35:59.042Z,94.68
2018-08-06T05:36:59.038Z,94.78
2018-08-06T05:37:59.046Z,94.68
2018-08-06T05:38:59.039Z,95.02
2018-08-06T05:39:59.065Z,94.73
2018-08-06T05:40:59.062Z,94.68
2018-08-06T05:41:59.045Z,92.94
2018-08-06T05:42:59.059Z,87.19
2018-08-06T05:43:59.056Z,81.71
2018-08-06T05:44:59.130Z,76.95
2018-08-06T05:45:59.080Z,76.46
2018-08-06T05:46:59.070Z,74.41
2018-08-06T05:47:59.127Z,70.64
2018-08-06T05:48:59.142Z,66.60
2018-08-06T05:49:59.080Z,66.95
2018-08-06T05:50:59.094Z,67.24
2018-08-06T05:51:59.089Z,68.79
2018-08-06T05:52:59.142Z,67.44
2018-08-06T05:53:59.097Z,67.54
2018-08-06T05:54:59.094Z,66.56
2018-08-06T05:55:59.103Z,66.27
2018-08-06T05:56:59.108Z,67.99
2018-08-06T05:57:59.113Z,66.60
2018-08-06T05:58:59.119Z,65.92
2018-08-06T05:59:59.141Z,65.40
2018-08-06T06:00:59.774Z,63.81
2018-08-06T06:01:59.135Z,61.51
2018-08-06T06:02:59.146Z,61.28
2018-08-06T06:03:59.160Z,62.87
2018-08-06T06:04:59.162Z,64.82
2018-08-06T06:05:59.159Z,65.47
2018-08-06T06:06:59.154Z,63.55
2018-08-06T06:07:59.169Z,62.16
2018-08-06T06:08:59.170Z,61.15
2018-08-06T06:09:59.345Z,61.93
2018-08-06T06:10:59.203Z,60.41
2018-08-06T06:11:59.190Z,61.11
2018-08-06T06:12:59.192Z,58.80
2018-08-06T06:13:59.299Z,57.43
2018-08-06T06:14:59.210Z,57.50
2018-08-06T06:15:59.216Z,56.75
2018-08-06T06:16:59.234Z,57.11
2018-08-06T06:17:59.244Z,59.21
2018-08-06T06:18:59.242Z,59.82
2018-08-06T06:19:59.258Z,59.59
2018-08-06T06:20:59.297Z,59.20
2018-08-06T06:21:59.262Z,57.70
2018-08-06T06:22:59.272Z,57.11
2018-08-06T06:23:59.275Z,58.32
2018-08-06T06:24:59.289Z,58.22
2018-08-06T06:25:59.316Z,56.87
2018-08-06T06:26:59.365Z,55.63
2018-08-06T06:27:59.319Z,55.51
2018-08-06T06:28:59.334Z,55.51
2018-08-06T06:29:59.343Z,56.92
2018-08-06T06:30:59.348Z,57.21
2018-08-06T06:31:59.385Z,56.70
2018-08-06T06:32:59.363Z,58.15
2018-08-06T06:33:59.363Z,58.32
2018-08-06T06:34:59.384Z,58.35
2018-08-06T06:35:59.397Z,56.97
2018-08-06T06:36:59.483Z,56.11
2018-08-06T06:37:59.407Z,57.90
2018-08-06T06:38:59.435Z,58.87
2018-08-06T06:39:59.424Z,59.86
2018-08-06T06:40:59.447Z,61.87
2018-08-06T06:42:00.301Z,61.74
2018-08-06T06:42:59.457Z,61.93
2018-08-06T06:43:59.466Z,60.05
2018-08-06T06:44:59.478Z,58.87
2018-08-06T06:45:59.480Z,59.30
2018-08-06T06:46:59.496Z,59.05
2018-08-06T06:47:59.517Z,60.05
2018-08-06T06:48:59.577Z,59.10
2018-08-06T06:49:59.525Z,58.03
2018-08-06T06:50:59.536Z,59.05
2018-08-06T06:51:59.640Z,59.00
2018-08-06T06:52:59.546Z,58.39
2018-08-06T06:53:59.560Z,57.86
2018-08-06T06:54:59.576Z,57.79
2018-08-06T06:55:59.583Z,57.24
2018-08-06T06:56:59.593Z,58.06
2018-08-06T06:57:59.601Z,58.06
2018-08-06T06:58:59.615Z,57.09
2018-08-06T06:59:59.660Z,59.00
2018-08-06T07:00:59.633Z,58.74
2018-08-06T07:02:00.321Z,57.99
2018-08-06T07:02:59.655Z,56.65
2018-08-06T07:03:59.682Z,56.07
2018-08-06T07:04:59.681Z,55.47
2018-08-06T07:05:59.718Z,52.81
2018-08-06T07:06:59.712Z,54.30
2018-08-06T07:07:59.725Z,54.03
2018-08-06T07:08:59.737Z,55.05
2018-08-06T07:09:59.738Z,55.15
2018-08-06T07:10:59.734Z,53.56
2018-08-06T07:12:00.325Z,51.66
2018-08-06T07:12:59.773Z,52.20
2018-08-06T07:13:59.838Z,51.66
2018-08-06T07:14:59.803Z,52.29
2018-08-06T07:15:59.805Z,51.64
2018-08-06T07:16:59.822Z,53.44
2018-08-06T07:18:00.348Z,52.22
2018-08-06T07:18:59.900Z,51.54
2018-08-06T07:19:59.908Z,50.90
2018-08-06T07:20:59.868Z,50.22
2018-08-06T07:21:59.878Z,49.92
2018-08-06T07:22:59.901Z,49.75
2018-08-06T07:23:59.910Z,50.49
2018-08-06T07:24:59.976Z,50.27
2018-08-06T07:25:59.979Z,52.00
2018-08-06T07:26:59.950Z,51.44
2018-08-06T07:27:59.972Z,51.51
2018-08-06T07:28:59.968Z,51.29
2018-08-06T07:30:00.006Z,52.69
2018-08-06T07:30:59.998Z,50.51
2018-08-06T07:32:00.042Z,50.93
2018-08-06T07:33:00.019Z,51.61
2018-08-06T07:34:00.060Z,52.20
2018-08-06T07:35:00.085Z,51.25
2018-08-06T07:36:00.065Z,52.76
2018-08-06T07:37:00.086Z,52.51
2018-08-06T07:38:00.099Z,50.73
2018-08-06T07:39:00.123Z,49.73
2018-08-06T07:40:00.150Z,50.15
2018-08-06T07:41:00.138Z,49.09
2018-08-06T07:42:00.140Z,49.36
2018-08-06T07:43:00.175Z,48.80
2018-08-06T07:44:00.231Z,49.11
2018-08-06T07:45:00.187Z,52.59
2018-08-06T07:46:00.208Z,50.98
2018-08-06T07:47:00.233Z,51.05
2018-08-06T07:48:00.300Z,51.07
2018-08-06T07:49:00.256Z,49.95
2018-08-06T07:50:00.868Z,49.11
2018-08-06T07:51:00.306Z,50.83
2018-08-06T07:52:00.320Z,50.68
2018-08-06T07:53:00.310Z,49.70
2018-08-06T07:54:00.362Z,50.20
2018-08-06T07:55:00.344Z,50.93
2018-08-06T07:56:00.343Z,51.32
2018-08-06T07:57:00.407Z,51.56
2018-08-06T07:58:00.399Z,52.34
2018-08-06T07:59:00.397Z,52.39
2018-08-06T08:00:01.373Z,51.64
2018-08-06T08:01:00.422Z,51.34
2018-08-06T08:02:00.470Z,51.27
2018-08-06T08:03:00.604Z,49.95
2018-08-06T08:04:00.473Z,49.33
2018-08-06T08:05:00.490Z,48.13
2018-08-06T08:06:00.508Z,48.21
2018-08-06T08:07:00.529Z,47.39
2018-08-06T08:08:00.621Z,47.00
2018-08-06T08:09:00.548Z,46.71
2018-08-06T08:10:00.576Z,46.12
2018-08-06T08:11:00.591Z,46.44
2018-08-06T08:12:00.678Z,46.36
2018-08-06T08:13:00.614Z,46.34
2018-08-06T08:14:00.654Z,48.30
2018-08-06T08:15:00.688Z,48.82
2018-08-06T08:16:00.662Z,48.87
2018-08-06T08:17:00.682Z,48.80
2018-08-06T08:18:01.394Z,46.81
2018-08-06T08:19:00.712Z,46.10
2018-08-06T08:20:00.806Z,47.57
2018-08-06T08:21:00.794Z,48.11
2018-08-06T08:22:00.758Z,48.85
2018-08-06T08:23:00.784Z,49.77
2018-08-06T08:24:00.800Z,50.27
2018-08-06T08:25:00.869Z,50.88
2018-08-06T08:26:00.824Z,49.97
2018-08-06T08:27:01.390Z,47.30
2018-08-06T08:28:01.406Z,47.08
2018-08-06T08:29:00.892Z,46.53
2018-08-06T08:30:00.886Z,45.40
2018-08-06T08:31:01.894Z,46.02
2018-08-06T08:32:00.934Z,45.28
2018-08-06T08:33:00.946Z,46.34
2018-08-06T08:34:01.014Z,46.17
2018-08-06T08:35:00.988Z,46.02
2018-08-06T08:36:00.991Z,46.27
2018-08-06T08:37:01.038Z,46.94
2018-08-06T08:38:01.908Z,46.00
2018-08-06T08:39:01.908Z,46.44
2018-08-06T08:40:01.092Z,45.55
2018-08-06T08:41:01.116Z,45.75
2018-08-06T08:42:01.104Z,45.04
2018-08-06T08:43:01.143Z,45.09
2018-08-06T08:44:01.158Z,44.74
2018-08-06T08:45:01.167Z,47.36
2018-08-06T08:46:01.191Z,48.01
2018-08-06T08:47:01.204Z,46.78
2018-08-06T08:48:01.215Z,46.12
2018-08-06T08:49:01.298Z,45.38
2018-08-06T08:50:01.302Z,43.50
2018-08-06T08:51:01.270Z,43.12
2018-08-06T08:52:01.348Z,44.89
2018-08-06T08:53:01.481Z,43.28
2018-08-06T08:54:01.330Z,42.32
2018-08-06T08:55:01.344Z,43.14
2018-08-06T08:56:01.398Z,43.53
2018-08-06T08:57:01.397Z,43.98
2018-08-06T08:58:01.396Z,43.14
2018-08-06T08:59:01.433Z,43.27
2018-08-06T09:00:01.435Z,44.92
2018-08-06T09:01:01.505Z,44.12
2018-08-06T09:02:02.464Z,43.28
2018-08-06T09:03:02.423Z,42.40
2018-08-06T09:04:01.529Z,44.23
2018-08-06T09:05:02.418Z,44.45
2018-08-06T09:06:01.574Z,44.80
2018-08-06T09:07:01.565Z,45.95
2018-08-06T09:08:01.592Z,45.70
2018-08-06T09:09:01.594Z,45.78
2018-08-06T09:10:01.625Z,47.16
2018-08-06T09:11:01.644Z,46.37
2018-08-06T09:12:01.660Z,44.45
2018-08-06T09:13:01.759Z,44.60
2018-08-06T09:14:01.769Z,45.34
2018-08-06T09:15:01.738Z,43.59
2018-08-06T09:16:02.421Z,43.62
2018-08-06T09:17:01.756Z,44.70
2018-08-06T09:18:01.782Z,44.23
2018-08-06T09:19:01.804Z,44.24
2018-08-06T09:20:01.836Z,46.18
2018-08-06T09:21:01.860Z,46.11
2018-08-06T09:22:01.872Z,45.66
2018-08-06T09:23:02.426Z,45.66
2018-08-06T09:24:01.892Z,44.23
2018-08-06T09:25:01.912Z,44.02
2018-08-06T09:26:01.933Z,44.60
2018-08-06T09:27:01.951Z,44.55
2018-08-06T09:28:02.931Z,45.02
2018-08-06T09:29:02.028Z,44.80
2018-08-06T09:30:02.038Z,43.90
2018-08-06T09:31:02.932Z,42.30
2018-08-06T09:32:02.060Z,42.16
2018-08-06T09:33:02.095Z,41.69
2018-08-06T09:34:02.172Z,42.67
2018-08-06T09:35:02.126Z,41.53
2018-08-06T09:36:02.135Z,39.89
2018-08-06T09:37:02.151Z,41.77
2018-08-06T09:38:02.930Z,42.53
2018-08-06T09:39:02.203Z,43.02
2018-08-06T09:40:02.214Z,42.82
2018-08-06T09:41:02.229Z,42.72
2018-08-06T09:42:02.255Z,42.47
2018-08-06T09:43:02.276Z,39.56
2018-08-06T09:44:02.286Z,39.82
2018-08-06T09:45:02.323Z,41.68
2018-08-06T09:46:02.340Z,42.49
2018-08-06T09:47:02.360Z,41.25
2018-08-06T09:48:02.569Z,39.66
2018-08-06T09:49:02.412Z,41.21
2018-08-06T09:50:02.446Z,40.56
2018-08-06T09:51:02.945Z,39.52
2018-08-06T09:52:02.462Z,39.82
2018-08-06T09:53:02.495Z,39.56
2018-08-06T09:54:02.508Z,39.28
2018-08-06T09:55:02.526Z,38.58
2018-08-06T09:56:02.548Z,38.51
2018-08-06T09:57:02.574Z,37.98
2018-08-06T09:58:02.630Z,37.05
2018-08-06T09:59:02.625Z,37.89
2018-08-06T10:00:02.653Z,39.05
2018-08-06T10:01:02.714Z,37.71
2018-08-06T10:02:02.690Z,36.86
2018-08-06T10:03:02.704Z,36.92
2018-08-06T10:04:02.729Z,37.45
2018-08-06T10:05:02.754Z,37.96
2018-08-06T10:06:02.864Z,37.65
2018-08-06T10:07:02.794Z,37.55
2018-08-06T10:08:02.873Z,36.65
2018-08-06T10:09:02.855Z,37.63
2018-08-06T10:10:02.864Z,37.07
2018-08-06T10:11:02.884Z,36.58
2018-08-06T10:12:02.962Z,36.96
2018-08-06T10:13:04.539Z,38.49
2018-08-06T10:14:02.955Z,38.30
2018-08-06T10:15:02.980Z,38.42
2018-08-06T10:16:02.996Z,38.12
2018-08-06T10:17:03.025Z,37.85
2018-08-06T10:18:03.048Z,37.96
2018-08-06T10:19:03.187Z,37.66
2018-08-06T10:20:03.150Z,37.15
2018-08-06T10:21:03.105Z,37.22
2018-08-06T10:22:03.145Z,38.95
2018-08-06T10:23:03.170Z,39.64
2018-08-06T10:24:03.199Z,39.34
2018-08-06T10:25:03.197Z,39.42
2018-08-06T10:26:03.223Z,39.56
2018-08-06T10:27:03.243Z,38.73
2018-08-06T10:28:03.282Z,38.14
2018-08-06T10:29:03.307Z,37.66
2018-08-06T10:30:03.428Z,36.76
2018-08-06T10:31:03.350Z,36.94
2018-08-06T10:32:03.367Z,39.13
2018-08-06T10:33:03.375Z,39.37
2018-08-06T10:35:35.589Z,38.79
2018-08-06T10:36:35.560Z,38.85
2018-08-06T10:37:35.592Z,38.79
2018-08-06T10:38:35.627Z,38.10
2018-08-06T10:39:35.639Z,37.91
2018-08-06T10:40:35.664Z,38.10
2018-08-06T10:41:35.673Z,38.26
2018-08-06T10:42:36.534Z,38.87
2018-08-06T10:43:35.779Z,38.20
2018-08-06T10:44:35.761Z,38.68
2018-08-06T10:45:35.770Z,38.89
2018-08-06T10:46:35.802Z,39.03
2018-08-06T10:47:35.825Z,38.32
2018-08-06T10:48:37.670Z,38.91
2018-08-06T10:49:35.873Z,38.14
2018-08-06T10:50:35.874Z,36.86
2018-08-06T10:51:35.910Z,37.01
2018-08-06T10:52:35.970Z,37.03
2018-08-06T10:53:35.961Z,36.99
2018-08-06T10:54:35.999Z,37.66
2018-08-06T10:55:36.158Z,38.22
2018-08-06T10:56:36.020Z,39.56
2018-08-06T10:57:36.094Z,40.00
2018-08-06T10:58:36.076Z,39.12
2018-08-06T10:59:36.151Z,38.45
2018-08-06T11:00:36.099Z,37.87
2018-08-06T11:01:36.128Z,38.83
2018-08-06T11:02:36.151Z,38.89
2018-08-06T11:03:36.163Z,38.87
2018-08-06T11:04:36.180Z,39.76
2018-08-06T11:05:36.272Z,40.80
2018-08-06T11:06:36.313Z,39.92
2018-08-06T11:07:36.249Z,39.90
2018-08-06T11:08:36.269Z,41.25
2018-08-06T11:09:36.291Z,42.00
2018-08-06T11:10:36.293Z,42.61
2018-08-06T11:11:36.321Z,42.02
2018-08-06T11:12:36.325Z,42.02
2018-08-06T11:13:36.351Z,41.80
2018-08-06T11:14:36.371Z,42.57
2018-08-06T11:15:36.383Z,42.96
2018-08-06T11:16:36.395Z,43.04
2018-08-06T11:17:36.403Z,43.12
2018-08-06T11:18:36.427Z,44.07
2018-08-06T11:19:36.438Z,44.48
2018-08-06T11:20:36.559Z,43.85
2018-08-06T11:21:36.469Z,45.83
2018-08-06T11:22:36.620Z,44.95
2018-08-06T11:23:36.512Z,44.85
2018-08-06T11:24:36.559Z,44.83
2018-08-06T11:25:36.560Z,44.85
2018-08-06T11:26:36.540Z,45.44
2018-08-06T11:27:36.562Z,45.07
2018-08-06T11:28:36.608Z,44.21
2018-08-06T11:29:36.578Z,43.52
2018-08-06T11:30:36.597Z,43.82
2018-08-06T11:31:36.613Z,43.94
2018-08-06T11:32:37.553Z,43.65
2018-08-06T11:33:36.630Z,43.15
2018-08-06T11:34:36.653Z,43.26
2018-08-06T11:35:36.677Z,43.43
2018-08-06T11:36:36.713Z,43.26
2018-08-06T11:37:36.683Z,43.65
2018-08-06T11:38:36.712Z,43.04
2018-08-06T11:39:37.553Z,43.51
2018-08-06T11:40:36.721Z,43.51
2018-08-06T11:41:36.764Z,44.09
2018-08-06T11:42:36.751Z,43.99
2018-08-06T11:43:36.757Z,43.41
2018-08-06T11:44:36.763Z,43.72
2018-08-06T11:45:36.786Z,43.23
2018-08-06T11:46:36.798Z,43.74
2018-08-06T11:47:36.831Z,43.62
2018-08-06T11:48:36.819Z,43.13
2018-08-06T11:49:36.824Z,44.09
2018-08-06T11:50:36.831Z,44.68
2018-08-06T11:51:36.848Z,44.12
2018-08-06T11:52:36.868Z,43.02
2018-08-06T11:53:36.872Z,44.07
2018-08-06T11:54:36.881Z,44.24
2018-08-06T11:55:36.907Z,43.95
2018-08-06T11:56:36.934Z,44.34
2018-08-06T11:57:37.037Z,43.68
2018-08-06T11:58:36.929Z,43.62
2018-08-06T11:59:36.948Z,43.62
2018-08-06T12:00:38.640Z,43.15
2018-08-06T12:01:36.971Z,43.13
2018-08-06T12:02:36.969Z,43.15
2018-08-06T12:03:36.986Z,43.05
2018-08-06T12:04:36.995Z,42.76
2018-08-06T12:05:37.002Z,43.21
2018-08-06T12:06:37.404Z,43.23
2018-08-06T12:07:37.059Z,43.65
2018-08-06T12:08:37.055Z,43.08
2018-08-06T12:09:37.151Z,42.79
2018-08-06T12:10:37.075Z,42.58
2018-08-06T12:11:37.057Z,42.66
2018-08-06T12:12:37.068Z,43.23
2018-08-06T12:13:37.179Z,43.33
2018-08-06T12:14:37.095Z,44.02
2018-08-06T12:15:37.103Z,43.65
2018-08-06T12:16:37.115Z,43.08
2018-08-06T12:17:37.123Z,42.58
2018-08-06T12:18:37.138Z,42.10
2018-08-06T12:19:37.149Z,42.29
2018-08-06T12:20:37.245Z,43.08
2018-08-06T12:21:37.168Z,41.61
2018-08-06T12:22:37.178Z,42.55
2018-08-06T12:23:37.192Z,42.94
2018-08-06T12:24:37.219Z,43.33
2018-08-06T12:25:37.220Z,42.94
2018-08-06T12:26:37.231Z,42.45
2018-08-06T12:27:37.225Z,42.72
2018-08-06T12:28:37.245Z,43.09
2018-08-06T12:29:37.256Z,44.15
2018-08-06T12:30:37.323Z,43.56
2018-08-06T12:31:37.267Z,44.54
2018-08-06T12:32:37.299Z,44.76
2018-08-06T12:33:37.300Z,44.37
2018-08-06T12:34:37.303Z,43.60
2018-08-06T12:35:37.310Z,43.60
2018-08-06T12:36:37.328Z,42.72
2018-08-06T12:37:37.356Z,42.91
2018-08-06T12:38:37.364Z,43.80
2018-08-06T12:39:37.381Z,44.66
2018-08-06T12:40:37.350Z,45.07
2018-08-06T12:41:37.392Z,44.51
2018-08-06T12:42:37.439Z,43.52
2018-08-06T12:43:37.425Z,43.51
2018-08-06T12:44:37.434Z,43.62
2018-08-06T12:45:37.481Z,44.41
2018-08-06T12:46:37.427Z,44.41
2018-08-06T12:47:37.459Z,45.02
2018-08-06T12:48:37.432Z,43.74
2018-08-06T12:49:37.478Z,42.98
2018-08-06T12:50:37.467Z,42.79
2018-08-06T12:51:37.521Z,42.88
2018-08-06T12:52:37.495Z,42.57
2018-08-06T12:53:37.490Z,42.66
2018-08-06T12:54:37.493Z,40.90